createdAt,value
2019-04-30T00:00:58.312Z,72.72
2019-04-30T00:01:58.943Z,73.33
2019-04-30T00:02:58.308Z,72.72
2019-04-30T00:03:59.412Z,72.61
2019-04-30T00:04:58.267Z,73.44
2019-04-30T00:05:58.256Z,73.13
2019-04-30T00:06:59.010Z,73.78
2019-04-30T00:07:58.753Z,73.33
2019-04-30T00:08:58.221Z,73.57
2019-04-30T00:09:58.213Z,72.44
2019-04-30T00:10:58.200Z,71.72
2019-04-30T00:12:01.259Z,72.03
2019-04-30T00:12:58.174Z,73.16
2019-04-30T00:13:58.928Z,72.75
2019-04-30T00:14:58.156Z,72.68
2019-04-30T00:16:01.488Z,73.71
2019-04-30T00:16:58.132Z,73.19
2019-04-30T00:18:01.781Z,73.06
2019-04-30T00:19:00.765Z,74.12
2019-04-30T00:19:59.708Z,72.99
2019-04-30T00:20:58.091Z,72.99
2019-04-30T00:22:00.472Z,72.89
2019-04-30T00:22:58.067Z,72.00
2019-04-30T00:24:00.699Z,72.72
2019-04-30T00:24:59.048Z,72.61
2019-04-30T00:26:05.187Z,72.99
2019-04-30T00:26:59.019Z,71.89
2019-04-30T00:28:00.353Z,70.73
2019-04-30T00:28:59.025Z,71.34
2019-04-30T00:30:00.416Z,72.06
2019-04-30T00:30:58.974Z,72.47
2019-04-30T00:32:04.309Z,71.45
2019-04-30T00:32:58.954Z,72.06
2019-04-30T00:34:01.354Z,71.45
2019-04-30T00:34:57.946Z,71.86
2019-04-30T00:35:58.184Z,71.66
2019-04-30T00:36:57.909Z,72.00
2019-04-30T00:38:00.182Z,72.51
2019-04-30T00:38:57.890Z,73.02
2019-04-30T00:39:57.890Z,72.17
2019-04-30T00:41:01.935Z,72.09
2019-04-30T00:41:58.850Z,71.96
2019-04-30T00:43:00.163Z,72.27
2019-04-30T00:43:58.830Z,73.02
2019-04-30T00:44:59.670Z,72.78
2019-04-30T00:45:58.804Z,72.89
2019-04-30T00:47:02.869Z,72.47
2019-04-30T00:47:58.782Z,73.23
2019-04-30T00:49:08.729Z,74.05
2019-04-30T00:50:00.257Z,72.09
2019-04-30T00:50:57.749Z,72.00
2019-04-30T00:51:58.345Z,72.51
2019-04-30T00:52:57.902Z,73.33
2019-04-30T00:53:57.717Z,72.92
2019-04-30T00:55:00.453Z,72.72
2019-04-30T00:55:58.711Z,73.44
2019-04-30T00:57:03.603Z,73.02
2019-04-30T00:57:58.669Z,72.41
2019-04-30T00:59:02.131Z,72.92
2019-04-30T00:59:58.648Z,72.72
2019-04-30T01:00:59.710Z,73.23
2019-04-30T01:01:58.627Z,72.09
2019-04-30T01:03:00.943Z,72.20
2019-04-30T01:03:58.603Z,71.41
2019-04-30T01:05:04.835Z,72.20
2019-04-30T01:05:58.613Z,72.51
2019-04-30T01:07:00.303Z,72.92
2019-04-30T01:07:58.562Z,72.92
2019-04-30T01:08:58.308Z,71.69
2019-04-30T01:09:58.535Z,72.00
2019-04-30T01:10:59.746Z,72.51
2019-04-30T01:11:58.535Z,73.02
2019-04-30T01:12:59.785Z,72.72
2019-04-30T01:13:59.087Z,71.79
2019-04-30T01:14:59.036Z,72.13
2019-04-30T01:15:58.764Z,72.96
2019-04-30T01:16:59.304Z,72.96
2019-04-30T01:17:59.286Z,72.75
2019-04-30T01:18:58.621Z,73.47
2019-04-30T01:19:59.146Z,73.47
2019-04-30T01:20:58.705Z,74.40
2019-04-30T01:21:59.373Z,74.29
2019-04-30T01:22:58.649Z,74.29
2019-04-30T01:23:59.037Z,73.91
2019-04-30T01:25:01.343Z,74.29
2019-04-30T01:25:58.595Z,73.57
2019-04-30T01:27:02.093Z,73.57
2019-04-30T01:27:58.613Z,73.06
2019-04-30T01:29:00.418Z,73.57
2019-04-30T01:29:58.503Z,74.29
2019-04-30T01:30:58.829Z,74.70
2019-04-30T01:31:58.609Z,75.01
2019-04-30T01:32:58.816Z,74.95
2019-04-30T01:33:58.967Z,74.91
2019-04-30T01:34:58.893Z,74.29
2019-04-30T01:35:57.242Z,74.22
2019-04-30T01:36:58.908Z,74.95
2019-04-30T01:37:57.235Z,74.43
2019-04-30T01:38:57.207Z,74.95
2019-04-30T01:39:58.777Z,75.77
2019-04-30T01:40:57.186Z,75.56
2019-04-30T01:41:58.681Z,75.05
2019-04-30T01:42:57.191Z,74.84
2019-04-30T01:43:58.491Z,75.77
2019-04-30T01:44:58.853Z,74.12
2019-04-30T01:46:03.244Z,74.22
2019-04-30T01:46:58.827Z,74.43
2019-04-30T01:48:00.711Z,74.95
2019-04-30T01:48:58.845Z,74.95
2019-04-30T01:50:01.003Z,75.05
2019-04-30T01:50:58.670Z,75.05
2019-04-30T01:51:58.490Z,74.63
2019-04-30T01:52:58.694Z,75.18
2019-04-30T01:53:57.070Z,76.01
2019-04-30T01:54:58.650Z,75.05
2019-04-30T01:55:57.014Z,74.84
2019-04-30T01:56:57.004Z,74.46
2019-04-30T01:57:59.067Z,74.36
2019-04-30T01:58:56.983Z,74.02
2019-04-30T01:59:58.289Z,74.26
2019-04-30T02:00:56.967Z,73.85
2019-04-30T02:01:58.546Z,73.64
2019-04-30T02:02:56.935Z,74.26
2019-04-30T02:03:58.532Z,74.46
2019-04-30T02:04:59.028Z,74.57
2019-04-30T02:05:56.901Z,74.67
2019-04-30T02:06:56.894Z,74.36
2019-04-30T02:07:58.542Z,74.46
2019-04-30T02:08:56.869Z,73.33
2019-04-30T02:09:58.358Z,73.95
2019-04-30T02:10:56.845Z,74.05
2019-04-30T02:11:56.834Z,73.57
2019-04-30T02:12:56.823Z,74.40
2019-04-30T02:13:56.810Z,74.50
2019-04-30T02:14:56.801Z,74.29
2019-04-30T02:15:59.082Z,73.78
2019-04-30T02:16:56.782Z,74.29
2019-04-30T02:17:58.293Z,74.40
2019-04-30T02:18:56.758Z,74.80
2019-04-30T02:19:57.399Z,75.12
2019-04-30T02:20:56.750Z,74.67
2019-04-30T02:21:58.490Z,75.01
2019-04-30T02:22:58.709Z,74.50
2019-04-30T02:23:56.702Z,73.43
2019-04-30T02:24:58.553Z,73.43
2019-04-30T02:25:58.830Z,72.64
2019-04-30T02:26:56.664Z,72.23
2019-04-30T02:27:56.652Z,73.26
2019-04-30T02:28:56.643Z,73.26
2019-04-30T02:29:56.636Z,72.33
2019-04-30T02:30:56.652Z,72.64
2019-04-30T02:31:56.610Z,72.33
2019-04-30T02:33:00.102Z,72.13
2019-04-30T02:33:56.595Z,72.23
2019-04-30T02:34:56.580Z,71.10
2019-04-30T02:35:56.592Z,71.10
2019-04-30T02:36:56.555Z,72.16
2019-04-30T02:37:56.541Z,72.13
2019-04-30T02:39:02.252Z,72.03
2019-04-30T02:40:00.564Z,72.13
2019-04-30T02:40:56.510Z,71.92
2019-04-30T02:41:56.511Z,71.00
2019-04-30T02:42:58.969Z,71.30
2019-04-30T02:43:59.821Z,71.72
2019-04-30T02:44:56.462Z,71.10
2019-04-30T02:45:56.452Z,71.72
2019-04-30T02:46:56.454Z,70.68
2019-04-30T02:47:56.442Z,70.58
2019-04-30T02:48:59.469Z,71.13
2019-04-30T02:50:11.473Z,71.44
2019-04-30T02:51:00.048Z,71.44
2019-04-30T02:51:56.404Z,70.51
2019-04-30T02:52:56.372Z,70.41
2019-04-30T02:53:56.363Z,70.51
2019-04-30T02:54:56.348Z,68.55
2019-04-30T02:55:56.340Z,69.38
2019-04-30T02:56:56.347Z,68.76
2019-04-30T02:57:56.329Z,68.59
2019-04-30T02:58:56.304Z,70.13
2019-04-30T02:59:56.296Z,69.93
2019-04-30T03:00:56.282Z,70.13
2019-04-30T03:01:56.299Z,68.38
2019-04-30T03:02:56.260Z,69.00
2019-04-30T03:03:56.248Z,69.00
2019-04-30T03:04:56.242Z,69.10
2019-04-30T03:05:56.224Z,68.90
2019-04-30T03:06:56.214Z,68.79
2019-04-30T03:07:56.224Z,69.72
2019-04-30T03:08:56.191Z,70.03
2019-04-30T03:09:56.181Z,70.54
2019-04-30T03:10:56.168Z,70.65
2019-04-30T03:11:56.156Z,71.06
2019-04-30T03:12:56.164Z,70.34
2019-04-30T03:13:56.134Z,70.13
2019-04-30T03:14:56.126Z,70.44
2019-04-30T03:15:56.114Z,69.93
2019-04-30T03:16:56.104Z,68.48
2019-04-30T03:17:56.111Z,69.20
2019-04-30T03:18:56.079Z,69.82
2019-04-30T03:19:56.066Z,70.65
2019-04-30T03:20:56.061Z,68.79
2019-04-30T03:21:56.048Z,68.59
2019-04-30T03:22:56.064Z,68.69
2019-04-30T03:23:56.022Z,68.90
2019-04-30T03:24:56.011Z,68.27
2019-04-30T03:25:55.999Z,69.10
2019-04-30T03:26:56.007Z,68.79
2019-04-30T03:27:55.978Z,68.72
2019-04-30T03:28:55.980Z,69.13
2019-04-30T03:29:55.956Z,68.82
2019-04-30T03:30:57.496Z,69.24
2019-04-30T03:31:55.933Z,70.27
2019-04-30T03:32:57.150Z,68.62
2019-04-30T03:33:55.929Z,69.31
2019-04-30T03:34:55.899Z,68.93
2019-04-30T03:35:55.890Z,68.82
2019-04-30T03:36:55.880Z,68.72
2019-04-30T03:37:55.865Z,68.93
2019-04-30T03:38:55.868Z,68.72
2019-04-30T03:39:55.849Z,68.93
2019-04-30T03:40:55.828Z,69.44
2019-04-30T03:41:55.819Z,69.03
2019-04-30T03:42:55.807Z,68.85
2019-04-30T03:43:55.826Z,69.03
2019-04-30T03:44:55.788Z,68.41
2019-04-30T03:45:55.773Z,69.03
2019-04-30T03:46:55.761Z,68.82
2019-04-30T03:47:55.752Z,67.79
2019-04-30T03:48:55.739Z,67.07
2019-04-30T03:49:55.759Z,67.17
2019-04-30T03:50:56.919Z,67.07
2019-04-30T03:51:55.706Z,66.79
2019-04-30T03:52:55.695Z,67.58
2019-04-30T03:53:55.697Z,67.07
2019-04-30T03:54:55.673Z,67.17
2019-04-30T03:55:55.689Z,67.79
2019-04-30T03:56:55.660Z,68.54
2019-04-30T03:57:55.638Z,68.96
2019-04-30T03:58:55.628Z,68.85
2019-04-30T03:59:55.617Z,68.27
2019-04-30T04:00:55.605Z,67.82
2019-04-30T04:01:55.610Z,68.75
2019-04-30T04:02:55.583Z,68.85
2019-04-30T04:03:55.581Z,68.44
2019-04-30T04:04:55.559Z,68.96
2019-04-30T04:05:55.549Z,68.96
2019-04-30T04:06:55.555Z,68.13
2019-04-30T04:07:55.526Z,68.44
2019-04-30T04:08:55.514Z,67.41
2019-04-30T04:09:55.503Z,68.13
2019-04-30T04:10:55.492Z,69.06
2019-04-30T04:11:55.496Z,69.17
2019-04-30T04:12:55.469Z,68.65
2019-04-30T04:13:55.462Z,68.75
2019-04-30T04:14:55.449Z,69.13
2019-04-30T04:15:55.435Z,68.82
2019-04-30T04:16:55.452Z,67.48
2019-04-30T04:17:55.413Z,68.51
2019-04-30T04:18:55.402Z,68.93
2019-04-30T04:19:55.390Z,68.41
2019-04-30T04:21:08.703Z,67.69
2019-04-30T04:21:56.399Z,67.38
2019-04-30T04:22:55.356Z,68.51
2019-04-30T04:23:55.349Z,69.13
2019-04-30T04:24:55.336Z,68.75
2019-04-30T04:25:55.321Z,68.54
2019-04-30T04:26:55.311Z,68.62
2019-04-30T04:27:55.327Z,68.62
2019-04-30T04:28:55.290Z,68.93
2019-04-30T04:29:55.276Z,69.13
2019-04-30T04:30:55.269Z,67.58
2019-04-30T04:31:55.253Z,67.07
2019-04-30T04:32:55.243Z,67.90
2019-04-30T04:33:55.261Z,67.38
2019-04-30T04:34:55.224Z,67.58
2019-04-30T04:35:55.211Z,67.27
2019-04-30T04:36:55.199Z,67.79
2019-04-30T04:37:55.187Z,66.76
2019-04-30T04:38:55.176Z,68.10
2019-04-30T04:39:55.191Z,68.30
2019-04-30T04:40:55.159Z,66.83
2019-04-30T04:41:55.142Z,66.63
2019-04-30T04:42:55.130Z,66.35
2019-04-30T04:43:55.121Z,67.27
2019-04-30T04:44:55.154Z,66.76
2019-04-30T04:45:55.097Z,66.52
2019-04-30T04:46:55.084Z,67.27
2019-04-30T04:47:55.074Z,67.24
2019-04-30T04:48:55.064Z,66.83
2019-04-30T04:49:55.052Z,67.03
2019-04-30T04:50:55.067Z,67.35
2019-04-30T04:51:55.028Z,66.63
2019-04-30T04:52:55.025Z,66.01
2019-04-30T04:53:55.010Z,66.42
2019-04-30T04:54:55.018Z,66.39
2019-04-30T04:55:54.984Z,66.49
2019-04-30T04:57:11.150Z,66.60
2019-04-30T04:57:55.961Z,65.53
2019-04-30T04:58:54.950Z,65.95
2019-04-30T04:59:54.942Z,66.46
2019-04-30T05:00:54.955Z,66.15
2019-04-30T05:01:54.916Z,66.25
2019-04-30T05:02:54.907Z,65.43
2019-04-30T05:03:54.893Z,65.40
2019-04-30T05:04:54.882Z,64.06
2019-04-30T05:05:54.877Z,64.89
2019-04-30T05:06:54.886Z,64.06
2019-04-30T05:07:54.847Z,64.89
2019-04-30T05:08:54.836Z,64.86
2019-04-30T05:09:54.826Z,64.14
2019-04-30T05:10:54.822Z,64.44
2019-04-30T05:11:54.818Z,64.24
2019-04-30T05:12:54.791Z,64.00
2019-04-30T05:13:54.780Z,63.69
2019-04-30T05:14:54.770Z,63.39
2019-04-30T05:15:54.756Z,63.49
2019-04-30T05:16:54.763Z,63.18
2019-04-30T05:17:54.735Z,62.87
2019-04-30T05:18:54.723Z,62.97
2019-04-30T05:19:54.713Z,62.90
2019-04-30T05:20:54.700Z,62.97
2019-04-30T05:21:54.717Z,63.07
2019-04-30T05:22:54.682Z,62.25
2019-04-30T05:23:54.672Z,61.43
2019-04-30T05:24:54.657Z,61.12
2019-04-30T05:25:54.644Z,60.99
2019-04-30T05:26:54.636Z,61.71
2019-04-30T05:27:54.637Z,61.40
2019-04-30T05:28:54.612Z,60.78
2019-04-30T05:29:54.604Z,60.99
2019-04-30T05:30:54.604Z,60.58
2019-04-30T05:31:54.577Z,60.65
2019-04-30T05:32:54.581Z,61.09
2019-04-30T05:33:54.556Z,60.75
2019-04-30T05:34:54.544Z,61.07
2019-04-30T05:35:54.532Z,61.27
2019-04-30T05:36:54.521Z,61.24
2019-04-30T05:37:54.538Z,60.42
2019-04-30T05:38:54.499Z,60.45
2019-04-30T05:39:54.486Z,59.50
2019-04-30T05:40:54.476Z,59.52
2019-04-30T05:41:54.476Z,59.83
2019-04-30T05:42:54.453Z,60.24
2019-04-30T05:43:54.462Z,60.83
2019-04-30T05:44:54.430Z,61.52
2019-04-30T05:45:54.424Z,60.70
2019-04-30T05:46:54.407Z,60.08
2019-04-30T05:47:54.397Z,59.77
2019-04-30T05:48:54.402Z,58.95
2019-04-30T05:49:54.382Z,59.34
2019-04-30T05:50:56.214Z,59.75
2019-04-30T05:51:55.887Z,60.26
2019-04-30T05:52:54.341Z,60.03
2019-04-30T05:53:54.350Z,60.03
2019-04-30T05:54:54.319Z,60.21
2019-04-30T05:55:54.309Z,58.49
2019-04-30T05:56:54.295Z,58.67
2019-04-30T05:57:56.352Z,58.05
2019-04-30T05:58:54.301Z,56.92
2019-04-30T05:59:54.262Z,57.43
2019-04-30T06:00:54.251Z,58.05
2019-04-30T06:01:54.247Z,58.05
2019-04-30T06:02:54.229Z,58.67
2019-04-30T06:03:54.219Z,58.15
2019-04-30T06:04:54.221Z,57.23
2019-04-30T06:05:54.193Z,56.41
2019-04-30T06:06:54.181Z,56.62
2019-04-30T06:07:55.473Z,57.64
2019-04-30T06:09:03.989Z,56.82
2019-04-30T06:09:55.166Z,56.90
2019-04-30T06:10:54.138Z,57.41
2019-04-30T06:11:54.125Z,55.46
2019-04-30T06:12:54.113Z,56.18
2019-04-30T06:13:54.104Z,56.59
2019-04-30T06:14:54.121Z,56.97
2019-04-30T06:15:54.081Z,56.77
2019-04-30T06:16:54.071Z,56.97
2019-04-30T06:18:00.907Z,55.41
2019-04-30T06:18:55.046Z,55.30
2019-04-30T06:19:54.035Z,54.92
2019-04-30T06:20:54.041Z,55.64
2019-04-30T06:22:05.077Z,55.54
2019-04-30T06:22:55.001Z,55.43
2019-04-30T06:23:53.992Z,55.72
2019-04-30T06:24:53.980Z,56.95
2019-04-30T06:25:59.585Z,56.54
2019-04-30T06:26:54.958Z,56.43
2019-04-30T06:27:53.945Z,55.00
2019-04-30T06:28:53.935Z,55.62
2019-04-30T06:29:53.925Z,56.54
2019-04-30T06:30:53.931Z,56.61
2019-04-30T06:31:53.903Z,57.12
2019-04-30T06:32:53.893Z,56.69
2019-04-30T06:33:53.880Z,56.79
2019-04-30T06:34:53.868Z,56.07
2019-04-30T06:35:53.876Z,55.46
2019-04-30T06:36:55.651Z,55.97
2019-04-30T06:37:53.839Z,55.46
2019-04-30T06:38:53.822Z,55.46
2019-04-30T06:39:53.812Z,56.48
2019-04-30T06:40:53.818Z,55.84
2019-04-30T06:42:04.129Z,56.87
2019-04-30T06:42:54.776Z,56.97
2019-04-30T06:43:53.766Z,57.04
2019-04-30T06:44:53.754Z,56.23
2019-04-30T06:45:53.763Z,55.08
2019-04-30T06:46:53.732Z,54.85
2019-04-30T06:47:53.720Z,55.05
2019-04-30T06:48:53.711Z,54.46
2019-04-30T06:49:53.698Z,55.66
2019-04-30T06:50:53.718Z,54.95
2019-04-30T06:51:53.675Z,55.05
2019-04-30T06:52:56.822Z,55.26
2019-04-30T06:53:53.654Z,55.56
2019-04-30T06:54:53.642Z,54.82
2019-04-30T06:55:53.630Z,53.59
2019-04-30T06:56:53.636Z,54.33
2019-04-30T06:57:53.607Z,54.21
2019-04-30T06:58:53.595Z,54.18
2019-04-30T06:59:53.584Z,54.69
2019-04-30T07:00:53.574Z,53.85
2019-04-30T07:01:53.580Z,53.44
2019-04-30T07:02:53.550Z,53.03
2019-04-30T07:03:53.538Z,52.73
2019-04-30T07:04:53.534Z,52.32
2019-04-30T07:05:53.517Z,53.14
2019-04-30T07:06:53.521Z,53.14
2019-04-30T07:08:02.234Z,52.50
2019-04-30T07:08:55.881Z,52.70
2019-04-30T07:09:58.317Z,52.58
2019-04-30T07:10:59.942Z,50.72
2019-04-30T07:11:54.490Z,51.23
2019-04-30T07:12:53.437Z,51.74
2019-04-30T07:13:53.425Z,52.25
2019-04-30T07:14:53.415Z,51.84
2019-04-30T07:15:53.405Z,51.72
2019-04-30T07:16:53.412Z,50.59
2019-04-30T07:17:53.382Z,50.11
2019-04-30T07:18:53.378Z,50.72
2019-04-30T07:19:56.716Z,51.33
2019-04-30T07:20:53.349Z,51.03
2019-04-30T07:21:53.363Z,52.25
2019-04-30T07:23:00.296Z,52.55
2019-04-30T07:23:54.313Z,51.20
2019-04-30T07:24:53.304Z,51.03
2019-04-30T07:25:53.293Z,52.53
2019-04-30T07:26:54.719Z,52.63
2019-04-30T07:27:54.286Z,50.80
2019-04-30T07:29:54.245Z,51.51
2019-04-30T07:31:54.222Z,50.49
2019-04-30T07:32:53.233Z,50.09
2019-04-30T07:33:54.059Z,50.98
2019-04-30T07:34:53.190Z,51.18
2019-04-30T07:35:53.179Z,49.25
2019-04-30T07:37:10.786Z,51.08
2019-04-30T07:37:54.477Z,50.57
2019-04-30T07:38:56.672Z,51.06
2019-04-30T07:39:53.134Z,51.18
2019-04-30T07:40:53.126Z,50.57
2019-04-30T07:41:53.115Z,51.87
2019-04-30T07:42:53.099Z,52.48
2019-04-30T07:43:53.614Z,51.64
2019-04-30T07:44:53.082Z,50.62
2019-04-30T07:45:53.065Z,50.70
2019-04-30T07:46:53.055Z,50.58
2019-04-30T07:47:53.043Z,48.87
2019-04-30T07:48:53.063Z,49.00
2019-04-30T07:49:55.907Z,49.71
2019-04-30T07:50:53.010Z,50.04
2019-04-30T07:51:53.493Z,50.42
2019-04-30T07:53:02.534Z,50.01
2019-04-30T07:53:54.005Z,49.10
2019-04-30T07:54:52.965Z,48.69
2019-04-30T07:55:52.966Z,49.18
2019-04-30T07:56:52.965Z,49.58
2019-04-30T07:57:52.932Z,49.76
2019-04-30T07:58:52.923Z,49.16
2019-04-30T07:59:52.945Z,47.53
2019-04-30T08:00:56.297Z,48.95
2019-04-30T08:02:04.006Z,48.72
2019-04-30T08:02:53.880Z,48.72
2019-04-30T08:03:53.164Z,49.03
2019-04-30T08:04:52.856Z,48.85
2019-04-30T08:05:52.930Z,48.63
2019-04-30T08:06:52.871Z,49.13
2019-04-30T08:07:52.886Z,49.95
2019-04-30T08:08:57.301Z,48.40
2019-04-30T08:09:34.156Z,51.72
2019-04-30T08:09:36.932Z,51.31
2019-04-30T08:09:53.799Z,48.10
2019-04-30T08:10:52.821Z,48.18
2019-04-30T08:11:52.778Z,46.94
2019-04-30T08:12:53.053Z,48.46
2019-04-30T08:13:52.853Z,48.96
2019-04-30T08:14:52.750Z,47.11
2019-04-30T08:15:52.735Z,47.22
2019-04-30T08:16:52.753Z,46.12
2019-04-30T08:18:02.814Z,46.53
2019-04-30T08:18:53.702Z,46.86
2019-04-30T08:19:52.693Z,47.87
2019-04-30T08:20:52.678Z,48.99
2019-04-30T08:21:52.668Z,49.90
2019-04-30T08:22:52.689Z,48.15
2019-04-30T08:23:52.649Z,45.72
2019-04-30T08:24:52.636Z,46.53
2019-04-30T08:25:52.626Z,47.85
2019-04-30T08:26:52.614Z,47.03
2019-04-30T08:27:52.605Z,47.24
2019-04-30T08:28:52.610Z,47.42
2019-04-30T08:29:52.586Z,47.70
2019-04-30T08:30:52.570Z,47.30
2019-04-30T08:31:52.573Z,45.27
2019-04-30T08:32:52.547Z,46.41
2019-04-30T08:33:52.570Z,46.51
2019-04-30T08:34:52.533Z,47.42
2019-04-30T08:35:52.514Z,48.61
2019-04-30T08:36:53.318Z,47.80
2019-04-30T08:37:52.492Z,45.15
2019-04-30T08:38:52.483Z,45.25
2019-04-30T08:39:52.498Z,47.17
2019-04-30T08:40:56.102Z,47.15
2019-04-30T08:41:53.451Z,46.34
2019-04-30T08:42:52.435Z,45.94
2019-04-30T08:43:52.422Z,47.55
2019-04-30T08:44:52.413Z,47.05
2019-04-30T08:45:52.417Z,46.83
2019-04-30T08:46:52.391Z,46.62
2019-04-30T08:47:52.380Z,46.40
2019-04-30T08:48:53.821Z,45.18
2019-04-30T08:49:52.357Z,45.87
2019-04-30T08:50:52.372Z,42.55
2019-04-30T08:51:52.345Z,43.49
2019-04-30T08:52:52.326Z,42.60
2019-04-30T08:53:52.312Z,44.03
2019-04-30T08:54:52.308Z,44.06
2019-04-30T08:55:52.290Z,44.03
2019-04-30T08:56:52.310Z,44.66
2019-04-30T08:57:52.267Z,44.58
2019-04-30T08:58:54.789Z,45.01
2019-04-30T08:59:52.247Z,45.39
2019-04-30T09:00:52.235Z,45.19
2019-04-30T09:01:52.224Z,44.07
2019-04-30T09:02:52.240Z,44.89
2019-04-30T09:03:52.200Z,45.07
2019-04-30T09:04:52.194Z,45.47
2019-04-30T09:05:52.181Z,45.37
2019-04-30T09:06:52.169Z,45.45
2019-04-30T09:07:52.160Z,44.64
2019-04-30T09:08:52.162Z,43.93
2019-04-30T09:09:52.135Z,43.55
2019-04-30T09:10:52.124Z,45.37
2019-04-30T09:11:55.669Z,45.15
2019-04-30T09:12:52.138Z,44.03
2019-04-30T09:13:52.122Z,44.24
2019-04-30T09:14:52.080Z,42.74
2019-04-30T09:15:52.069Z,44.24
2019-04-30T09:16:52.079Z,43.93
2019-04-30T09:18:00.807Z,42.40
2019-04-30T09:18:53.063Z,43.10
2019-04-30T09:19:52.024Z,46.52
2019-04-30T09:20:52.011Z,44.70
2019-04-30T09:21:52.001Z,42.66
2019-04-30T09:22:51.989Z,41.04
2019-04-30T09:23:52.768Z,41.32
2019-04-30T09:24:51.994Z,39.70
2019-04-30T09:25:51.958Z,40.31
2019-04-30T09:26:51.946Z,39.61
2019-04-30T09:27:51.933Z,40.52
2019-04-30T09:28:51.921Z,38.78
2019-04-30T09:29:51.909Z,38.68
2019-04-30T09:30:51.928Z,38.88
2019-04-30T09:31:51.887Z,39.99
2019-04-30T09:32:51.876Z,39.48
2019-04-30T09:33:51.868Z,39.59
2019-04-30T09:34:51.854Z,41.00
2019-04-30T09:35:51.844Z,39.87
2019-04-30T09:36:51.848Z,38.68
2019-04-30T09:37:59.023Z,38.15
2019-04-30T09:38:52.808Z,36.82
2019-04-30T09:39:51.800Z,35.90
2019-04-30T09:40:51.789Z,36.07
2019-04-30T09:41:51.792Z,35.51
2019-04-30T09:42:51.766Z,35.58
2019-04-30T09:43:51.753Z,34.64
2019-04-30T09:44:54.252Z,34.49
2019-04-30T09:45:51.733Z,33.87
2019-04-30T09:46:51.746Z,32.43
2019-04-30T09:47:51.708Z,32.48
2019-04-30T09:48:51.702Z,31.45
2019-04-30T09:49:51.685Z,30.61
2019-04-30T09:50:51.875Z,28.58
2019-04-30T09:51:51.958Z,28.87
2019-04-30T09:52:51.898Z,28.03
2019-04-30T09:53:58.592Z,26.63
2019-04-30T09:54:52.829Z,25.23
2019-04-30T09:55:51.629Z,25.61
2019-04-30T09:56:52.777Z,25.21
2019-04-30T09:57:51.594Z,25.10
2019-04-30T09:58:51.600Z,24.98
2019-04-30T09:59:51.572Z,24.07
2019-04-30T10:00:51.562Z,24.85
2019-04-30T10:01:51.550Z,24.16
2019-04-30T10:02:51.539Z,22.78
2019-04-30T10:03:52.029Z,23.68
2019-04-30T10:04:51.851Z,22.78
2019-04-30T10:05:51.509Z,24.25
2019-04-30T10:06:51.502Z,21.69
2019-04-30T10:07:51.488Z,21.59
2019-04-30T10:08:51.485Z,21.31
2019-04-30T10:09:51.493Z,20.97
2019-04-30T10:10:51.452Z,22.37
2019-04-30T10:11:51.439Z,22.38
2019-04-30T10:12:51.432Z,23.05
2019-04-30T10:13:51.419Z,23.33
2019-04-30T10:14:51.431Z,22.52
2019-04-30T10:15:51.425Z,23.89
2019-04-30T10:16:51.387Z,21.29
2019-04-30T10:17:51.376Z,21.27
2019-04-30T10:18:51.363Z,21.46
2019-04-30T10:19:51.353Z,20.35
2019-04-30T10:20:51.341Z,18.56
2019-04-30T10:21:51.348Z,18.65
2019-04-30T10:22:51.321Z,18.74
2019-04-30T10:23:51.311Z,19.03
2019-04-30T10:24:51.299Z,18.23
2019-04-30T10:25:51.292Z,18.04
2019-04-30T10:26:51.307Z,18.63
2019-04-30T10:27:51.278Z,17.63
2019-04-30T10:28:51.258Z,17.03
2019-04-30T10:29:51.245Z,16.25
2019-04-30T10:30:51.233Z,17.35
2019-04-30T10:31:51.225Z,17.14
2019-04-30T10:32:51.657Z,17.85
2019-04-30T10:33:51.204Z,18.55
2019-04-30T10:34:51.195Z,17.38
2019-04-30T10:35:51.181Z,18.78
2019-04-30T10:36:51.177Z,19.09
2019-04-30T10:37:51.159Z,18.88
2019-04-30T10:38:51.180Z,18.58
2019-04-30T10:39:51.163Z,18.37
2019-04-30T10:40:51.128Z,18.95
2019-04-30T10:41:51.119Z,18.35
2019-04-30T10:42:51.118Z,18.83
2019-04-30T10:43:51.122Z,16.07
2019-04-30T10:44:51.084Z,15.77
2019-04-30T10:45:51.072Z,16.66
2019-04-30T10:46:51.063Z,17.44
2019-04-30T10:47:51.052Z,17.54
2019-04-30T10:48:51.041Z,15.86
2019-04-30T10:49:51.057Z,17.63
2019-04-30T10:50:51.018Z,17.02
2019-04-30T10:51:51.007Z,15.36
2019-04-30T10:52:50.998Z,15.36
2019-04-30T10:53:50.999Z,15.75
2019-04-30T10:54:50.975Z,15.16
2019-04-30T10:55:50.994Z,15.85
2019-04-30T10:56:51.357Z,15.73
2019-04-30T10:57:50.944Z,14.84
2019-04-30T10:58:50.963Z,14.54
2019-04-30T10:59:50.921Z,14.26
2019-04-30T11:00:50.935Z,14.66
2019-04-30T11:01:50.920Z,14.37
2019-04-30T11:02:50.891Z,14.46
2019-04-30T11:03:50.883Z,13.40
2019-04-30T11:04:50.870Z,15.36
2019-04-30T11:05:50.908Z,14.67
2019-04-30T11:06:50.882Z,13.78
2019-04-30T11:07:50.839Z,14.18
2019-04-30T11:08:50.829Z,14.28
2019-04-30T11:09:50.817Z,14.19
2019-04-30T11:10:50.809Z,14.69
2019-04-30T11:11:50.798Z,13.89
2019-04-30T11:12:50.806Z,14.18
2019-04-30T11:13:50.779Z,13.78
2019-04-30T11:14:50.765Z,13.78
2019-04-30T11:15:50.784Z,13.78
2019-04-30T11:16:51.592Z,13.68
2019-04-30T11:17:50.873Z,13.96
2019-04-30T11:18:50.928Z,14.45
2019-04-30T11:19:50.991Z,13.65
2019-04-30T11:20:50.911Z,14.82
2019-04-30T11:21:50.896Z,15.69
2019-04-30T11:22:50.830Z,13.92
2019-04-30T11:23:50.931Z,12.45
2019-04-30T11:24:58.416Z,11.28
2019-04-30T11:25:52.299Z,11.18
2019-04-30T11:26:51.480Z,12.15
2019-04-30T11:27:51.425Z,11.56
2019-04-30T11:28:50.775Z,11.95
2019-04-30T11:29:50.839Z,12.25
2019-04-30T11:30:50.820Z,12.55
2019-04-30T11:31:50.811Z,13.52
2019-04-30T11:32:50.738Z,12.45
2019-04-30T11:33:50.828Z,12.45
2019-04-30T11:34:50.561Z,12.55
2019-04-30T11:36:02.098Z,12.46
2019-04-30T11:36:51.566Z,12.57
2019-04-30T11:37:50.528Z,12.87
2019-04-30T11:38:50.517Z,12.59
2019-04-30T11:39:50.507Z,12.68
2019-04-30T11:40:50.499Z,12.87
2019-04-30T11:41:50.486Z,13.18
2019-04-30T11:42:50.494Z,13.87
2019-04-30T11:43:50.466Z,14.26
2019-04-30T11:44:50.454Z,13.87
2019-04-30T11:45:50.445Z,14.47
2019-04-30T11:46:50.433Z,14.47
2019-04-30T11:47:53.550Z,14.95
2019-04-30T11:48:50.425Z,15.35
2019-04-30T11:49:50.403Z,14.86
2019-04-30T11:50:50.394Z,16.42
2019-04-30T11:51:50.384Z,13.77
2019-04-30T11:52:50.390Z,12.98
2019-04-30T11:53:50.362Z,12.88
2019-04-30T11:54:54.172Z,12.79
2019-04-30T11:55:50.343Z,13.39
2019-04-30T11:56:50.552Z,12.90
2019-04-30T11:57:50.334Z,12.99
2019-04-30T11:58:50.310Z,13.20
2019-04-30T11:59:50.298Z,13.98
2019-04-30T12:00:50.291Z,13.40
2019-04-30T12:01:50.275Z,14.39
2019-04-30T12:02:52.782Z,14.79
2019-04-30T12:03:50.254Z,15.01
2019-04-30T12:04:50.245Z,16.41
2019-04-30T12:05:50.233Z,16.16
2019-04-30T12:06:50.224Z,17.17
2019-04-30T12:07:50.652Z,18.98
2019-04-30T12:08:50.204Z,19.18
2019-04-30T12:09:50.190Z,18.90
2019-04-30T12:10:50.182Z,19.01
2019-04-30T12:11:50.710Z,18.62
2019-04-30T12:12:50.157Z,19.43
2019-04-30T12:13:50.165Z,19.54
2019-04-30T12:14:50.134Z,19.75
2019-04-30T12:15:50.227Z,20.16
2019-04-30T12:16:50.689Z,20.67
2019-04-30T12:17:50.105Z,21.28
2019-04-30T12:18:50.108Z,20.89
2019-04-30T12:19:50.085Z,22.11
2019-04-30T12:20:50.075Z,22.20
2019-04-30T12:21:50.062Z,22.72
2019-04-30T12:22:50.072Z,22.94
2019-04-30T12:23:50.053Z,23.05
2019-04-30T12:25:02.039Z,22.65
2019-04-30T12:25:51.014Z,22.66
2019-04-30T12:26:50.004Z,23.27
2019-04-30T12:27:49.995Z,23.47
2019-04-30T12:28:49.997Z,24.08
2019-04-30T12:29:49.973Z,24.98
2019-04-30T12:30:49.962Z,24.39
2019-04-30T12:31:49.947Z,24.08
2019-04-30T12:32:49.937Z,24.19
2019-04-30T12:33:49.955Z,23.99
2019-04-30T12:34:49.915Z,24.69
2019-04-30T12:35:51.328Z,24.39
2019-04-30T12:36:49.893Z,24.39
2019-04-30T12:37:52.406Z,24.08
2019-04-30T12:38:49.872Z,24.20
2019-04-30T12:39:49.879Z,24.40
2019-04-30T12:40:49.851Z,24.10
2019-04-30T12:41:49.836Z,25.71
2019-04-30T12:42:49.828Z,24.50
2019-04-30T12:43:49.814Z,24.20
2019-04-30T12:44:49.824Z,24.00
2019-04-30T12:46:02.029Z,24.80
2019-04-30T12:46:50.780Z,24.90
2019-04-30T12:47:49.768Z,24.70
2019-04-30T12:48:49.760Z,24.40
2019-04-30T12:49:49.776Z,25.20
2019-04-30T12:50:49.737Z,24.60
2019-04-30T12:51:50.557Z,25.40
2019-04-30T12:53:10.720Z,24.91